createdAt,value
2018-03-14T00:00:26.078Z,22.90
2018-03-14T00:01:31.015Z,23.25
2018-03-14T00:02:37.023Z,23.65
2018-03-14T00:03:42.088Z,22.27
2018-03-14T00:04:47.182Z,23.25
2018-03-14T00:05:52.961Z,24.08
2018-03-14T00:06:58.981Z,23.87
2018-03-14T00:08:05.420Z,24.05
2018-03-14T00:09:10.630Z,23.50
2018-03-14T00:10:16.505Z,24.63
2018-03-14T00:11:22.733Z,23.48
2018-03-14T00:12:28.973Z,24.20
2018-03-14T00:13:34.696Z,23.87
2018-03-14T00:14:40.044Z,23.35
2018-03-14T00:15:45.626Z,22.05
2018-03-14T00:16:51.144Z,23.77
2018-03-14T00:17:56.355Z,23.33
2018-03-14T00:19:01.285Z,24.05
2018-03-14T00:20:09.553Z,22.73
2018-03-14T00:21:15.471Z,22.67
2018-03-14T00:22:29.356Z,23.30
2018-03-14T00:23:35.110Z,22.55
2018-03-14T00:24:40.210Z,24.15
2018-03-14T00:25:45.399Z,23.02
2018-03-14T00:26:50.398Z,23.60
2018-03-14T00:27:56.045Z,22.13
2018-03-14T00:29:01.748Z,22.37
2018-03-14T00:30:07.118Z,23.73
2018-03-14T00:31:12.483Z,21.52
2018-03-14T00:32:17.443Z,23.38
2018-03-14T00:33:23.433Z,22.27
2018-03-14T00:34:28.418Z,23.58
2018-03-14T00:35:34.442Z,23.70
2018-03-14T00:36:40.118Z,22.77
2018-03-14T00:37:47.549Z,22.95
2018-03-14T00:38:52.743Z,21.58
2018-03-14T00:39:58.765Z,22.02
2018-03-14T00:41:04.151Z,21.37
2018-03-14T00:42:10.504Z,22.47
2018-03-14T00:43:17.264Z,22.05
2018-03-14T00:44:22.328Z,21.10
2018-03-14T00:45:29.778Z,22.70
2018-03-14T00:46:36.466Z,23.35
2018-03-14T00:47:41.829Z,22.67
2018-03-14T00:48:47.307Z,24.00
2018-03-14T00:49:52.723Z,25.58
2018-03-14T00:50:57.907Z,23.92
2018-03-14T00:52:04.429Z,23.02
2018-03-14T00:53:10.924Z,24.52
2018-03-14T00:54:17.148Z,22.25
2018-03-14T00:55:23.456Z,22.37
2018-03-14T00:56:29.601Z,23.20
2018-03-14T00:57:36.705Z,22.58
2018-03-14T00:58:44.032Z,21.98
2018-03-14T00:59:49.241Z,21.08
2018-03-14T01:00:54.714Z,22.60
2018-03-14T01:02:00.975Z,23.05
2018-03-14T01:03:06.190Z,22.25
2018-03-14T01:04:11.504Z,22.33
2018-03-14T01:05:16.761Z,22.58
2018-03-14T01:06:23.042Z,23.48
2018-03-14T01:07:28.974Z,22.85
2018-03-14T01:08:37.767Z,23.08
2018-03-14T01:09:44.879Z,21.40
2018-03-14T01:10:49.973Z,23.20
2018-03-14T01:11:55.283Z,21.97
2018-03-14T01:13:01.562Z,21.80
2018-03-14T01:14:10.024Z,22.42
2018-03-14T01:15:16.313Z,21.90
2018-03-14T01:16:22.863Z,23.77
2018-03-14T01:17:28.653Z,22.95
2018-03-14T01:18:33.760Z,23.37
2018-03-14T01:19:40.275Z,23.80
2018-03-14T01:20:46.945Z,23.80
2018-03-14T01:21:57.465Z,25.37
2018-03-14T01:23:03.638Z,27.67
2018-03-14T01:24:10.325Z,22.80
2018-03-14T01:25:17.792Z,23.35
2018-03-14T01:26:25.121Z,22.77
2018-03-14T01:27:30.280Z,22.15
2018-03-14T01:28:35.671Z,22.55
2018-03-14T01:29:40.817Z,22.30
2018-03-14T01:30:46.764Z,23.33
2018-03-14T01:31:52.142Z,23.62
2018-03-14T01:32:58.379Z,22.90
2018-03-14T01:34:05.178Z,24.02
2018-03-14T01:35:11.307Z,24.70
2018-03-14T01:36:17.500Z,22.17
2018-03-14T01:37:23.037Z,24.10
2018-03-14T01:38:28.537Z,24.35
2018-03-14T01:39:36.119Z,24.17
2018-03-14T01:40:42.257Z,23.70
2018-03-14T01:41:48.448Z,24.92
2018-03-14T01:42:54.340Z,23.87
2018-03-14T01:44:00.683Z,23.20
2018-03-14T01:45:05.822Z,23.40
2018-03-14T01:46:11.120Z,22.35
2018-03-14T01:47:16.904Z,23.52
2018-03-14T01:48:22.405Z,23.80
2018-03-14T01:49:28.230Z,23.55
2018-03-14T01:50:33.666Z,24.70
2018-03-14T01:51:39.874Z,23.30
2018-03-14T01:52:47.663Z,23.27
2018-03-14T01:53:54.601Z,23.35
2018-03-14T01:55:02.500Z,22.60
2018-03-14T01:56:08.645Z,24.30
2018-03-14T01:57:13.933Z,23.20
2018-03-14T01:58:20.508Z,24.23
2018-03-14T01:59:25.478Z,23.77
2018-03-14T02:00:31.133Z,22.83
2018-03-14T02:01:37.338Z,23.30
2018-03-14T02:02:43.399Z,24.02
2018-03-14T02:03:49.245Z,23.58
2018-03-14T02:04:54.053Z,23.90
2018-03-14T02:06:00.642Z,23.87
2018-03-14T02:07:06.982Z,24.30
2018-03-14T02:08:12.083Z,24.80
2018-03-14T02:09:17.249Z,24.42
2018-03-14T02:10:22.842Z,24.30
2018-03-14T02:11:28.391Z,23.40
2018-03-14T02:12:33.221Z,24.70
2018-03-14T02:13:39.678Z,23.70
2018-03-14T02:14:44.905Z,25.67
2018-03-14T02:15:50.312Z,25.58
2018-03-14T02:16:55.850Z,24.67
2018-03-14T02:18:01.575Z,23.50
2018-03-14T02:19:06.570Z,23.25
2018-03-14T02:20:11.473Z,23.23
2018-03-14T02:21:16.496Z,24.12
2018-03-14T02:22:21.534Z,23.85
2018-03-14T02:23:27.249Z,24.83
2018-03-14T02:24:32.436Z,24.73
2018-03-14T02:25:38.324Z,25.35
2018-03-14T02:26:43.239Z,24.35
2018-03-14T02:27:49.758Z,23.85
2018-03-14T02:28:54.541Z,24.17
2018-03-14T02:30:00.288Z,23.98
2018-03-14T02:31:06.326Z,22.98
2018-03-14T02:32:12.172Z,23.58
2018-03-14T02:33:19.300Z,22.42
2018-03-14T02:34:24.255Z,24.87
2018-03-14T02:35:29.858Z,24.23
2018-03-14T02:36:44.633Z,24.40
2018-03-14T02:37:52.022Z,24.42
2018-03-14T02:38:59.187Z,24.58
2018-03-14T02:40:04.949Z,24.27
2018-03-14T02:41:10.393Z,25.20
2018-03-14T02:42:16.347Z,22.67
2018-03-14T02:43:21.954Z,23.62
2018-03-14T02:44:27.573Z,25.03
2018-03-14T02:45:33.815Z,25.95
2018-03-14T02:46:40.884Z,23.50
2018-03-14T02:47:46.662Z,24.83
2018-03-14T02:48:55.143Z,26.00
2018-03-14T02:50:00.860Z,23.42
2018-03-14T02:51:05.527Z,24.30
2018-03-14T02:52:11.207Z,25.17
2018-03-14T02:53:16.500Z,24.35
2018-03-14T02:54:23.036Z,23.60
2018-03-14T02:55:27.928Z,24.03
2018-03-14T02:56:33.410Z,24.50
2018-03-14T02:57:39.302Z,24.83
2018-03-14T02:58:44.926Z,24.85
2018-03-14T02:59:51.088Z,23.95
2018-03-14T03:00:56.894Z,24.70
2018-03-14T03:02:03.340Z,24.70
2018-03-14T03:03:10.445Z,23.55
2018-03-14T03:04:18.177Z,23.95
2018-03-14T03:05:22.841Z,23.30
2018-03-14T03:06:28.172Z,24.75
2018-03-14T03:07:33.561Z,23.87
2018-03-14T03:08:39.636Z,23.60
2018-03-14T03:09:44.411Z,23.38
2018-03-14T03:10:49.134Z,23.12
2018-03-14T03:11:54.276Z,23.98
2018-03-14T03:12:59.627Z,24.75
2018-03-14T03:14:05.027Z,26.02
2018-03-14T03:15:10.925Z,25.00
2018-03-14T03:16:16.917Z,23.75
2018-03-14T03:17:21.966Z,25.37
2018-03-14T03:18:26.807Z,24.67
2018-03-14T03:19:32.064Z,23.33
2018-03-14T03:20:36.509Z,24.80
2018-03-14T03:21:41.341Z,24.30
2018-03-14T03:22:46.095Z,25.45
2018-03-14T03:23:51.067Z,24.85
2018-03-14T03:24:55.591Z,23.65
2018-03-14T03:26:00.049Z,24.50
2018-03-14T03:27:05.174Z,24.13
2018-03-14T03:28:10.286Z,23.90
2018-03-14T03:29:17.063Z,24.23
2018-03-14T03:30:21.816Z,25.75
2018-03-14T03:31:26.554Z,23.92
2018-03-14T03:32:31.084Z,24.95
2018-03-14T03:33:36.483Z,24.27
2018-03-14T03:34:40.959Z,23.40
2018-03-14T03:35:46.298Z,25.77
2018-03-14T03:36:51.148Z,25.37
2018-03-14T03:37:55.745Z,26.20
2018-03-14T03:39:00.754Z,26.35
2018-03-14T03:40:06.228Z,24.70
2018-03-14T03:41:11.274Z,23.75
2018-03-14T03:42:16.290Z,24.08
2018-03-14T03:43:21.635Z,26.25
2018-03-14T03:44:26.609Z,25.85
2018-03-14T03:45:32.547Z,25.73
2018-03-14T03:46:38.119Z,26.70
2018-03-14T03:47:42.972Z,25.70
2018-03-14T03:48:48.193Z,25.23
2018-03-14T03:49:53.550Z,26.48
2018-03-14T03:50:57.975Z,25.98
2018-03-14T03:52:02.537Z,26.80
2018-03-14T03:53:07.621Z,27.92
2018-03-14T03:54:13.754Z,43.87
2018-03-14T03:55:18.178Z,31.27
2018-03-14T03:56:22.575Z,27.50
2018-03-14T03:57:28.011Z,26.83
2018-03-14T03:58:33.269Z,27.98
2018-03-14T03:59:38.911Z,27.27
2018-03-14T04:00:44.711Z,27.30
2018-03-14T04:01:49.011Z,27.80
2018-03-14T04:02:53.320Z,27.45
2018-03-14T04:03:58.340Z,29.05
2018-03-14T04:05:03.346Z,27.50
2018-03-14T04:06:08.408Z,29.12
2018-03-14T04:07:13.125Z,28.90
2018-03-14T04:08:17.671Z,27.48
2018-03-14T04:09:22.112Z,28.40
2018-03-14T04:10:26.495Z,27.33
2018-03-14T04:11:32.844Z,27.80
2018-03-14T04:12:39.075Z,27.35
2018-03-14T04:13:43.903Z,28.27
2018-03-14T04:14:48.384Z,29.20
2018-03-14T04:15:52.979Z,28.65
2018-03-14T04:16:57.639Z,28.35
2018-03-14T04:18:02.549Z,30.35
2018-03-14T04:19:07.122Z,28.73
2018-03-14T04:20:12.241Z,28.92
2018-03-14T04:21:18.093Z,28.98
2018-03-14T04:22:23.162Z,30.20
2018-03-14T04:23:27.577Z,29.60
2018-03-14T04:24:32.335Z,28.58
2018-03-14T04:25:40.065Z,29.87
2018-03-14T04:26:44.848Z,29.23
2018-03-14T04:27:49.989Z,28.33
2018-03-14T04:28:54.354Z,29.12
2018-03-14T04:29:59.134Z,30.35
2018-03-14T04:31:04.680Z,29.65
2018-03-14T04:32:09.042Z,31.33
2018-03-14T04:33:14.052Z,32.53
2018-03-14T04:34:19.555Z,30.65
2018-03-14T04:35:24.054Z,31.17
2018-03-14T04:36:28.414Z,32.40
2018-03-14T04:37:33.955Z,33.80
2018-03-14T04:38:39.080Z,32.92
2018-03-14T04:39:44.180Z,33.45
2018-03-14T04:40:48.649Z,34.63
2018-03-14T04:41:53.458Z,34.28
2018-03-14T04:42:58.075Z,36.13
2018-03-14T04:44:02.548Z,35.38
2018-03-14T04:45:07.656Z,36.28
2018-03-14T04:46:12.394Z,35.92
2018-03-14T04:47:17.188Z,36.30
2018-03-14T04:48:22.447Z,36.65
2018-03-14T04:49:27.822Z,37.38
2018-03-14T04:50:32.542Z,36.72
2018-03-14T04:51:37.587Z,38.53
2018-03-14T04:52:42.473Z,37.78
2018-03-14T04:53:47.206Z,36.90
2018-03-14T04:54:51.785Z,36.42
2018-03-14T04:55:56.508Z,36.65
2018-03-14T04:57:01.796Z,34.92
2018-03-14T04:58:06.897Z,35.13
2018-03-14T04:59:11.562Z,34.00
2018-03-14T05:00:16.301Z,33.63
2018-03-14T05:01:21.745Z,34.33
2018-03-14T05:02:27.387Z,34.57
2018-03-14T05:03:32.308Z,33.75
2018-03-14T05:04:37.951Z,65.40
2018-03-14T05:06:45.791Z,48.50
2018-03-14T05:07:51.204Z,33.88
2018-03-14T05:08:56.418Z,34.17
2018-03-14T05:10:01.716Z,35.27
2018-03-14T05:11:06.254Z,34.17
2018-03-14T05:12:10.606Z,33.75
2018-03-14T05:13:15.192Z,32.40
2018-03-14T05:14:20.024Z,34.65
2018-03-14T05:15:24.822Z,33.75
2018-03-14T05:16:29.613Z,33.40
2018-03-14T05:17:34.774Z,34.88
2018-03-14T05:18:40.244Z,35.00
2018-03-14T05:19:46.048Z,33.60
2018-03-14T05:20:50.965Z,35.97
2018-03-14T05:21:56.168Z,35.90
2018-03-14T05:23:01.932Z,37.25
2018-03-14T05:24:06.510Z,37.30
2018-03-14T05:26:32.746Z,37.30
2018-03-14T05:27:38.144Z,39.92
2018-03-14T05:28:44.689Z,39.35
2018-03-14T05:29:50.244Z,39.72
2018-03-14T05:30:55.922Z,38.30
2018-03-14T05:32:01.612Z,40.60
2018-03-14T05:33:06.685Z,38.70
2018-03-14T05:34:11.634Z,42.00
2018-03-14T05:35:17.612Z,41.15
2018-03-14T05:36:24.314Z,41.45
2018-03-14T05:37:30.683Z,42.45
2018-03-14T05:38:36.551Z,44.33
2018-03-14T05:39:43.558Z,42.38
2018-03-14T05:40:50.743Z,43.90
2018-03-14T05:41:55.759Z,43.25
2018-03-14T05:43:02.694Z,45.70
2018-03-14T05:44:07.866Z,45.58
2018-03-14T05:45:13.331Z,45.35
2018-03-14T05:46:18.891Z,46.92
2018-03-14T05:47:24.517Z,45.55
2018-03-14T05:48:30.272Z,46.08
2018-03-14T05:49:36.595Z,47.55
2018-03-14T05:50:43.238Z,47.53
2018-03-14T05:51:49.055Z,48.25
2018-03-14T05:52:54.328Z,47.50
2018-03-14T05:53:59.829Z,47.20
2018-03-14T05:55:06.276Z,47.45
2018-03-14T05:56:13.273Z,48.90
2018-03-14T05:57:18.719Z,46.13
2018-03-14T05:58:24.250Z,48.13
2018-03-14T05:59:29.898Z,55.22
2018-03-14T06:00:36.040Z,50.25
2018-03-14T06:01:41.504Z,50.55
2018-03-14T06:02:47.049Z,49.88
2018-03-14T06:03:52.146Z,48.43
2018-03-14T06:04:57.440Z,48.00
2018-03-14T06:06:03.170Z,47.47
2018-03-14T06:07:09.131Z,49.83
2018-03-14T06:08:14.827Z,47.58
2018-03-14T06:09:21.981Z,48.95
2018-03-14T06:10:28.504Z,49.35
2018-03-14T06:11:33.769Z,51.50
2018-03-14T06:12:39.357Z,50.33
2018-03-14T06:13:45.996Z,50.70
2018-03-14T06:14:51.965Z,51.27
2018-03-14T06:15:58.035Z,53.47
2018-03-14T06:17:03.311Z,52.50
2018-03-14T06:18:08.760Z,53.85
2018-03-14T06:19:14.277Z,51.90
2018-03-14T06:20:20.320Z,53.33
2018-03-14T06:21:26.026Z,53.95
2018-03-14T06:22:31.484Z,52.53
2018-03-14T06:23:37.315Z,52.45
2018-03-14T06:24:42.537Z,54.47
2018-03-14T06:25:47.796Z,55.10
2018-03-14T06:26:53.449Z,53.15
2018-03-14T06:27:58.777Z,53.95
2018-03-14T06:29:03.890Z,52.90
2018-03-14T06:30:08.979Z,58.45
2018-03-14T06:31:14.372Z,57.38
2018-03-14T06:32:20.598Z,53.10
2018-03-14T06:33:25.856Z,54.33
2018-03-14T06:34:31.727Z,51.97
2018-03-14T06:35:37.548Z,54.67
2018-03-14T06:36:43.535Z,52.15
2018-03-14T06:37:48.794Z,54.63
2018-03-14T06:38:53.965Z,53.03
2018-03-14T06:39:59.779Z,53.17
2018-03-14T06:41:05.754Z,53.13
2018-03-14T06:42:11.101Z,52.92
2018-03-14T06:43:16.120Z,54.00
2018-03-14T06:44:21.358Z,53.92
2018-03-14T06:45:26.479Z,56.33
2018-03-14T06:46:31.644Z,54.70
2018-03-14T06:47:36.809Z,53.90
2018-03-14T06:48:42.694Z,52.53
2018-03-14T06:49:47.886Z,54.70
2018-03-14T06:50:53.042Z,54.40
2018-03-14T06:51:58.235Z,52.45
2018-03-14T06:53:04.179Z,55.50
2018-03-14T06:54:10.156Z,52.15
2018-03-14T06:55:15.809Z,53.95
2018-03-14T06:56:22.455Z,52.83
2018-03-14T06:57:29.976Z,50.88
2018-03-14T06:58:43.752Z,52.25
2018-03-14T07:02:36.649Z,53.17
2018-03-14T07:03:55.668Z,50.45
2018-03-14T07:06:11.957Z,52.95
2018-03-14T07:07:17.179Z,53.25
2018-03-14T07:08:23.573Z,52.03
2018-03-14T07:09:30.009Z,51.70
2018-03-14T07:10:35.932Z,52.38
2018-03-14T07:11:41.378Z,48.87
2018-03-14T07:12:46.484Z,54.75
2018-03-14T07:13:53.665Z,52.78
2018-03-14T07:14:59.764Z,51.33
2018-03-14T07:16:04.991Z,54.95
2018-03-14T07:17:10.520Z,51.58
2018-03-14T07:18:15.806Z,52.30
2018-03-14T07:19:20.992Z,51.67
2018-03-14T07:20:27.179Z,50.28
2018-03-14T07:21:32.999Z,53.50
2018-03-14T07:22:39.093Z,47.65
2018-03-14T07:23:45.772Z,51.28
2018-03-14T07:24:51.323Z,48.45
2018-03-14T07:25:56.676Z,49.80
2018-03-14T07:27:02.154Z,49.65
2018-03-14T07:28:07.634Z,49.35
2018-03-14T07:29:12.647Z,48.30
2018-03-14T07:30:18.914Z,48.80
2018-03-14T07:31:25.535Z,49.53
2018-03-14T07:32:30.586Z,47.25
2018-03-14T07:33:38.051Z,48.38
2018-03-14T07:34:45.978Z,50.33
2018-03-14T07:35:51.686Z,46.97
2018-03-14T07:36:58.330Z,47.22
2018-03-14T07:38:04.389Z,48.15
2018-03-14T07:39:09.366Z,49.83
2018-03-14T07:40:15.308Z,49.10
2018-03-14T07:41:24.100Z,49.03
2018-03-14T07:42:31.115Z,48.72
2018-03-14T07:43:41.216Z,46.92
2018-03-14T07:44:46.501Z,54.33
2018-03-14T07:45:51.528Z,50.78
2018-03-14T07:46:56.484Z,49.78
2018-03-14T07:48:01.669Z,49.60
2018-03-14T07:49:06.905Z,49.05
2018-03-14T07:50:12.104Z,47.83
2018-03-14T07:51:17.844Z,46.15
2018-03-14T07:52:23.726Z,45.70
2018-03-14T07:53:29.020Z,44.70
2018-03-14T07:54:34.201Z,43.28
2018-03-14T07:55:39.920Z,43.47
2018-03-14T07:56:45.236Z,44.57
2018-03-14T07:57:50.192Z,44.65
2018-03-14T07:58:56.195Z,45.05
2018-03-14T08:00:01.284Z,44.13
2018-03-14T08:01:06.638Z,43.60
2018-03-14T08:02:12.610Z,45.22
2018-03-14T08:03:17.348Z,42.63
2018-03-14T08:04:22.600Z,46.00
2018-03-14T08:05:27.594Z,43.70
2018-03-14T08:06:32.285Z,43.33
2018-03-14T08:07:37.653Z,43.28
2018-03-14T08:08:43.520Z,42.50
2018-03-14T08:09:48.591Z,41.90
2018-03-14T08:10:53.482Z,42.62
2018-03-14T08:12:00.241Z,43.87
2018-03-14T08:13:07.067Z,44.28
2018-03-14T08:14:12.306Z,44.80
2018-03-14T08:15:18.099Z,44.63
2018-03-14T08:16:23.030Z,45.75
2018-03-14T08:17:27.939Z,43.60
2018-03-14T08:18:33.215Z,45.12
2018-03-14T08:19:38.842Z,43.90
2018-03-14T08:20:47.997Z,43.80
2018-03-14T08:21:55.385Z,44.55
2018-03-14T08:23:02.400Z,43.67
2018-03-14T08:24:08.759Z,44.05
2018-03-14T08:25:13.683Z,44.37
2018-03-14T08:26:19.377Z,44.30
2018-03-14T08:27:26.677Z,45.12
2018-03-14T08:28:33.051Z,43.35
2018-03-14T08:29:40.105Z,44.30
2018-03-14T08:30:45.537Z,45.60
2018-03-14T08:31:53.247Z,43.53
2018-03-14T08:32:58.823Z,45.17
2018-03-14T08:34:04.466Z,44.75
2018-03-14T08:35:09.807Z,45.35
2018-03-14T08:36:15.654Z,44.90
2018-03-14T08:37:22.046Z,45.28
2018-03-14T08:38:28.322Z,43.75
2018-03-14T08:39:33.919Z,41.55
2018-03-14T08:40:40.543Z,42.83
2018-03-14T08:41:50.880Z,42.33
2018-03-14T08:42:57.244Z,41.88
2018-03-14T08:44:03.950Z,41.30
2018-03-14T08:45:15.397Z,42.75
2018-03-14T08:46:24.318Z,41.15
2018-03-14T08:47:32.004Z,42.13
2018-03-14T08:48:41.927Z,42.15
2018-03-14T08:49:49.027Z,42.17
2018-03-14T08:50:57.174Z,41.75
2018-03-14T08:52:05.390Z,41.20
2018-03-14T08:53:13.671Z,41.85
2018-03-14T08:54:19.710Z,43.50
2018-03-14T08:55:27.702Z,43.80
2018-03-14T08:56:36.036Z,44.15
2018-03-14T08:57:43.554Z,43.70
2018-03-14T08:58:51.675Z,42.03
2018-03-14T08:59:58.676Z,41.95
2018-03-14T09:01:04.830Z,40.80
2018-03-14T09:02:12.185Z,41.42
2018-03-14T09:03:20.476Z,40.03
2018-03-14T09:04:30.118Z,39.92
2018-03-14T09:05:37.493Z,39.70
2018-03-14T09:06:42.591Z,38.35
2018-03-14T09:07:47.450Z,39.65
2018-03-14T09:08:52.485Z,40.15
2018-03-14T09:09:57.786Z,40.47
2018-03-14T09:11:02.617Z,41.47
2018-03-14T09:12:07.809Z,41.67
2018-03-14T09:13:12.652Z,47.38
2018-03-14T09:14:17.416Z,44.43
2018-03-14T09:15:23.864Z,40.47
2018-03-14T09:16:30.288Z,39.03
2018-03-14T09:17:35.056Z,39.00
2018-03-14T09:18:40.710Z,38.83
2018-03-14T09:19:45.702Z,39.20
2018-03-14T09:20:51.483Z,45.58
2018-03-14T09:21:56.628Z,46.70
2018-03-14T09:23:01.773Z,39.47
2018-03-14T09:24:07.030Z,35.27
2018-03-14T09:25:12.672Z,29.85
2018-03-14T09:26:18.555Z,27.05
2018-03-14T09:27:23.691Z,27.75
2018-03-14T09:28:29.409Z,33.40
2018-03-14T09:29:35.115Z,26.93
2018-03-14T09:30:41.050Z,26.23
2018-03-14T09:31:46.212Z,25.25
2018-03-14T09:32:52.942Z,27.13
2018-03-14T09:34:01.386Z,26.20
2018-03-14T09:35:06.521Z,26.98
2018-03-14T09:36:11.402Z,25.55
2018-03-14T09:37:16.967Z,25.85
2018-03-14T09:38:22.539Z,25.23
2018-03-14T09:39:28.612Z,24.63
2018-03-14T09:40:35.277Z,28.33
2018-03-14T09:41:40.199Z,24.83
2018-03-14T09:42:45.111Z,24.52
2018-03-14T09:43:50.154Z,20.75
2018-03-14T09:44:56.233Z,20.77
2018-03-14T09:46:01.211Z,20.57
2018-03-14T09:47:05.897Z,20.75
2018-03-14T09:48:11.079Z,20.40
2018-03-14T09:49:17.006Z,21.52
2018-03-14T09:50:21.926Z,22.70
2018-03-14T09:51:28.394Z,21.37
2018-03-14T09:52:35.057Z,22.60
2018-03-14T09:53:41.709Z,23.95
2018-03-14T09:54:46.421Z,23.05
2018-03-14T09:55:53.087Z,22.60
2018-03-14T09:56:57.862Z,21.70
2018-03-14T09:58:02.718Z,22.40
2018-03-14T09:59:08.022Z,21.98
2018-03-14T10:00:12.984Z,21.40
2018-03-14T10:01:18.590Z,22.08
2018-03-14T10:02:23.301Z,22.48
2018-03-14T10:03:28.071Z,22.83
2018-03-14T10:04:32.980Z,22.08
2018-03-14T10:05:38.679Z,27.35
2018-03-14T10:06:43.445Z,24.02
2018-03-14T10:07:50.202Z,24.67
2018-03-14T10:08:55.800Z,23.00
2018-03-14T10:10:01.169Z,24.80
2018-03-14T10:11:08.056Z,24.90
2018-03-14T10:12:12.798Z,22.98
2018-03-14T10:13:17.376Z,22.52
2018-03-14T10:14:22.855Z,24.00
2018-03-14T10:15:29.503Z,23.70
2018-03-14T10:16:34.301Z,23.48
2018-03-14T10:17:39.008Z,24.02
2018-03-14T10:18:44.096Z,23.60
2018-03-14T10:19:50.335Z,22.35
2018-03-14T10:20:55.916Z,22.73
2018-03-14T10:22:01.243Z,23.80
2018-03-14T10:23:07.011Z,23.42
2018-03-14T10:24:12.930Z,23.70
2018-03-14T10:25:18.648Z,22.75
2018-03-14T10:26:23.624Z,24.40
2018-03-14T10:27:29.273Z,23.90
2018-03-14T10:28:34.083Z,24.40
2018-03-14T10:29:38.758Z,39.17
2018-03-14T10:30:44.253Z,28.02
2018-03-14T10:31:50.676Z,24.52
2018-03-14T10:32:55.331Z,24.73
2018-03-14T10:34:00.734Z,23.40
2018-03-14T10:35:05.582Z,23.65
2018-03-14T10:36:11.105Z,23.80
2018-03-14T10:37:15.835Z,25.42
2018-03-14T10:38:21.410Z,24.80
2018-03-14T10:39:27.240Z,25.52
2018-03-14T10:40:32.796Z,26.73
2018-03-14T10:41:38.423Z,23.90
2018-03-14T10:42:44.888Z,23.42
2018-03-14T10:43:52.902Z,22.90
2018-03-14T10:44:57.895Z,21.37
2018-03-14T10:46:04.128Z,21.80
2018-03-14T10:47:09.594Z,20.83
2018-03-14T10:48:20.328Z,21.70
2018-03-14T10:49:25.107Z,21.27
2018-03-14T10:50:29.857Z,29.50
2018-03-14T10:51:35.359Z,27.30
2018-03-14T10:52:40.209Z,23.15
2018-03-14T10:53:44.941Z,26.75
2018-03-14T10:54:51.304Z,22.15
2018-03-14T10:55:57.307Z,21.30
2018-03-14T10:57:03.102Z,20.58
2018-03-14T10:58:09.684Z,20.75
2018-03-14T10:59:14.499Z,20.65
2018-03-14T11:00:23.395Z,22.08
2018-03-14T11:01:34.071Z,19.50
2018-03-14T11:02:42.970Z,19.95
2018-03-14T11:03:47.751Z,20.58
2018-03-14T11:04:53.265Z,18.90
2018-03-14T11:05:58.367Z,20.27
2018-03-14T11:07:03.154Z,18.90
2018-03-14T11:08:08.941Z,19.13
2018-03-14T11:09:14.848Z,18.80
2018-03-14T11:10:19.667Z,18.85
2018-03-14T11:11:25.127Z,18.98
2018-03-14T11:12:29.839Z,16.30
2018-03-14T11:13:34.689Z,16.30
2018-03-14T11:14:39.416Z,15.10
2018-03-14T11:15:44.194Z,15.27
2018-03-14T11:16:52.723Z,15.55
2018-03-14T11:17:58.198Z,17.40
2018-03-14T11:19:03.027Z,17.40
2018-03-14T11:20:08.547Z,18.02
2018-03-14T11:21:14.313Z,17.12
2018-03-14T11:22:19.894Z,19.13
2018-03-14T11:23:24.806Z,21.98
2018-03-14T11:24:29.779Z,19.62
2018-03-14T11:25:34.713Z,17.70
2018-03-14T11:26:40.165Z,16.37
2018-03-14T11:27:46.492Z,16.60
2018-03-14T11:28:53.075Z,16.80
2018-03-14T11:29:57.920Z,16.65
2018-03-14T11:31:02.647Z,16.83
2018-03-14T11:32:07.376Z,16.20
2018-03-14T11:33:12.228Z,16.02
2018-03-14T11:34:17.946Z,16.87
2018-03-14T11:35:22.823Z,18.67
2018-03-14T11:36:27.601Z,18.02
2018-03-14T11:37:32.310Z,59.50
2018-03-14T11:38:37.759Z,18.15
2018-03-14T11:39:42.561Z,184.43
2018-03-14T11:40:47.357Z,90.25
2018-03-14T11:41:53.792Z,116.75
2018-03-14T11:42:58.626Z,37.40
2018-03-14T11:44:03.272Z,22.67
2018-03-14T11:45:08.856Z,16.25
2018-03-14T11:46:14.399Z,31.33
2018-03-14T11:47:19.187Z,36.87
2018-03-14T11:48:24.660Z,33.05
2018-03-14T11:49:30.208Z,22.83
2018-03-14T11:50:35.954Z,16.42
2018-03-14T11:51:40.712Z,14.80
2018-03-14T11:52:48.833Z,13.65
2018-03-14T11:53:54.676Z,13.95
2018-03-14T11:54:59.477Z,23.43
2018-03-14T11:56:04.378Z,17.65
2018-03-14T11:57:09.806Z,13.82
2018-03-14T11:58:15.259Z,12.15
2018-03-14T11:59:19.921Z,14.15
2018-03-14T12:00:24.748Z,12.85
2018-03-14T12:02:50.306Z,17.08
2018-03-14T12:03:55.898Z,19.33
2018-03-14T12:05:00.632Z,15.73
2018-03-14T12:06:05.437Z,15.38
2018-03-14T12:07:10.127Z,15.93
2018-03-14T12:08:15.383Z,12.98
2018-03-14T12:09:20.246Z,13.75
2018-03-14T12:10:25.245Z,14.70
2018-03-14T12:11:31.994Z,12.55
2018-03-14T12:12:37.129Z,14.10
2018-03-14T12:13:42.043Z,13.23
2018-03-14T12:14:46.719Z,12.45
2018-03-14T12:15:52.575Z,13.02
2018-03-14T12:16:57.252Z,12.85
2018-03-14T12:18:02.853Z,15.02
2018-03-14T12:19:07.651Z,12.50
2018-03-14T12:20:12.314Z,13.55
2018-03-14T12:21:17.825Z,16.05
2018-03-14T12:22:26.625Z,13.40
2018-03-14T12:23:31.784Z,11.65
2018-03-14T12:24:37.333Z,11.75
2018-03-14T12:25:43.010Z,11.63
2018-03-14T12:26:54.546Z,11.70
2018-03-14T12:28:00.115Z,11.30
2018-03-14T12:29:05.327Z,10.85
2018-03-14T12:30:09.978Z,11.82
2018-03-14T12:31:14.583Z,11.50
2018-03-14T12:32:19.295Z,10.60
2018-03-14T12:33:24.670Z,11.60
2018-03-14T12:34:30.757Z,10.57
2018-03-14T12:35:35.492Z,11.93
2018-03-14T12:36:41.241Z,14.50
2018-03-14T12:37:46.082Z,12.23
2018-03-14T12:38:51.859Z,12.63
2018-03-14T12:39:57.894Z,13.20
2018-03-14T12:41:03.418Z,12.82
2018-03-14T12:42:08.911Z,13.38
2018-03-14T12:43:13.711Z,12.37
2018-03-14T12:44:18.479Z,13.23
2018-03-14T12:45:23.313Z,13.07
2018-03-14T12:46:29.316Z,13.90
2018-03-14T12:47:35.565Z,12.13
2018-03-14T12:48:41.457Z,17.00
2018-03-14T12:49:47.240Z,14.55
2018-03-14T12:50:54.279Z,12.77
2018-03-14T12:51:59.923Z,23.92
2018-03-14T12:53:05.444Z,17.35
2018-03-14T12:54:11.245Z,13.52
2018-03-14T12:55:16.161Z,12.52
2018-03-14T12:56:21.003Z,14.17
2018-03-14T12:57:27.051Z,22.05
2018-03-14T12:58:32.622Z,13.32
2018-03-14T12:59:38.580Z,12.77
2018-03-14T13:00:43.268Z,13.25
2018-03-14T13:01:48.958Z,14.70
2018-03-14T13:02:53.806Z,13.30
2018-03-14T13:03:59.605Z,12.93
2018-03-14T13:05:09.456Z,13.27
2018-03-14T13:06:15.227Z,16.48
2018-03-14T13:07:20.209Z,12.23
2018-03-14T13:08:25.096Z,13.73
2018-03-14T13:09:31.314Z,18.00
2018-03-14T13:10:36.201Z,12.80
2018-03-14T13:11:41.052Z,13.52
2018-03-14T13:12:46.038Z,11.87
2018-03-14T13:13:51.992Z,13.25
2018-03-14T13:14:56.696Z,12.60
2018-03-14T13:16:01.623Z,11.95
2018-03-14T13:17:06.451Z,11.93
2018-03-14T13:18:11.358Z,10.80
2018-03-14T13:19:16.625Z,11.95
2018-03-14T13:20:21.480Z,11.43
2018-03-14T13:21:26.923Z,11.90
2018-03-14T13:22:32.477Z,20.33
2018-03-14T13:23:37.288Z,14.00
2018-03-14T13:24:43.095Z,10.63
2018-03-14T13:25:48.939Z,11.20
2018-03-14T13:26:54.848Z,10.60
2018-03-14T13:28:00.449Z,14.13
2018-03-14T13:29:06.057Z,10.30
2018-03-14T13:30:10.881Z,14.10
2018-03-14T13:31:16.683Z,10.52
2018-03-14T13:32:21.737Z,10.10
2018-03-14T13:33:26.498Z,10.40
2018-03-14T13:34:31.232Z,11.48
2018-03-14T13:35:36.495Z,15.75
2018-03-14T13:36:41.255Z,13.88
2018-03-14T13:37:46.595Z,12.50
2018-03-14T13:38:52.213Z,9.80
2018-03-14T13:39:58.256Z,11.23
2018-03-14T13:41:05.890Z,11.75
2018-03-14T13:42:10.644Z,9.27
2018-03-14T13:43:16.742Z,9.10
2018-03-14T13:44:21.470Z,9.07
2018-03-14T13:45:26.760Z,9.43
2018-03-14T13:46:33.194Z,8.70
2018-03-14T13:47:49.880Z,8.63
2018-03-14T13:48:56.050Z,56.15
2018-03-14T13:50:02.311Z,63.95
2018-03-14T13:51:09.570Z,29.20
2018-03-14T13:52:14.458Z,17.55
2018-03-14T13:53:19.406Z,9.98
2018-03-14T13:54:24.723Z,44.92
2018-03-14T13:55:31.478Z,20.55
2018-03-14T13:56:36.933Z,29.87
2018-03-14T13:57:42.661Z,22.87
2018-03-14T13:58:50.098Z,27.60
2018-03-14T13:59:56.102Z,14.65
2018-03-14T14:01:02.677Z,42.78
2018-03-14T14:02:08.395Z,31.60
2018-03-14T14:03:15.317Z,13.80
2018-03-14T14:04:21.089Z,11.15
2018-03-14T14:05:26.803Z,19.58
2018-03-14T14:06:32.355Z,15.93
2018-03-14T14:07:40.244Z,30.20
2018-03-14T14:08:45.959Z,14.98
2018-03-14T14:09:52.932Z,47.93
2018-03-14T14:10:59.956Z,13.50
2018-03-14T14:12:06.610Z,9.63
2018-03-14T14:13:12.076Z,18.62
2018-03-14T14:14:18.563Z,11.68